Terminal Aerodrome Forecast
Issued by NWS

Home | Current Version | Previous Version | Text Only | Print | Product List | Glossary On
Versions: 1 2 3 4 5 6 7 8 9 10 11 12
686
FTUS43 KICT 060539
TAFCNU
TAF
KCNU 060539Z 0606/0706 19007KT P6SM SCT050 BKN100
     FM060800 32005KT P6SM FEW050 BKN120
     FM061200 33007KT P6SM SKC
     FM062300 VRB05KT P6SM SKC=

USA.gov is the U.S. government's official web portal to all federal, state and local government web resources and services.